Time;durP1;ratioP1;P1;durP2;ratioP2;P2;SDS_P1;SDS_P2;PMS_P1;PMS_P2;Temp;Humidity;BMP_temperature;BMP_pressure;BME280_temperature;BME280_humidity;BME280_pressure;Samples;Min_cycle;Max_cycle;Signal;HPM_P1;HPM_P2
2023/01/18 00:00:41;;;;;;;1.40;1.30;;;;;;;3.53;92.93;96697.25;5095618;28;20075;-66
2023/01/18 00:03:14;;;;;;;0.60;0.60;;;;;;;3.49;92.81;96690.63;5095013;28;20044;-67
2023/01/18 00:05:43;;;;;;;0.28;0.28;;;;;;;3.49;92.55;96678.03;5095514;28;20094;-67
2023/01/18 00:08:15;;;;;;;0.45;0.45;;;;;;;3.46;92.89;96670.50;5095095;28;20059;-66
2023/01/18 00:10:46;;;;;;;0.60;0.60;;;;;;;3.46;92.82;96665.47;5094700;28;20044;-66
2023/01/18 00:13:15;;;;;;;0.60;0.60;;;;;;;3.50;93.24;96681.38;5095336;28;20127;-66
2023/01/18 00:15:44;;;;;;;0.40;0.40;;;;;;;3.50;93.13;96674.66;5094992;28;20072;-67
2023/01/18 00:18:12;;;;;;;0.43;0.43;;;;;;;3.47;92.77;96672.19;5094951;28;20380;-66
2023/01/18 00:20:41;;;;;;;0.50;0.50;;;;;;;3.43;93.05;96670.59;5094839;28;20413;-67
2023/01/18 00:23:10;;;;;;;0.50;0.50;;;;;;;3.41;93.21;96676.53;5094850;28;20393;-67
2023/01/18 00:25:39;;;;;;;0.50;0.50;;;;;;;3.43;93.42;96683.22;5094811;28;20060;-66
2023/01/18 00:28:09;;;;;;;0.60;0.60;;;;;;;3.43;93.58;96680.69;5094358;28;20040;-67
2023/01/18 00:30:39;;;;;;;0.50;0.50;;;;;;;3.42;93.77;96679.00;5093581;28;20050;-67
2023/01/18 00:33:09;;;;;;;0.47;0.47;;;;;;;3.39;93.40;96669.00;5094688;28;20449;-67
2023/01/18 00:35:38;;;;;;;0.40;0.40;;;;;;;3.38;94.15;96662.31;5094863;28;20119;-67
2023/01/18 00:38:07;;;;;;;0.60;0.60;;;;;;;3.41;93.76;96657.19;5094534;28;20127;-67
2023/01/18 00:40:35;;;;;;;0.50;0.50;;;;;;;3.43;93.81;96650.44;5094406;28;20421;-67
2023/01/18 00:45:44;;;;;;;0.77;0.77;;;;;;;3.52;94.51;96645.19;5094234;28;20128;-67
2023/01/18 00:48:13;;;;;;;0.30;0.30;;;;;;;3.54;94.64;96628.34;5094360;28;20478;-67
2023/01/18 00:50:42;;;;;;;0.40;0.40;;;;;;;3.53;94.83;96651.06;5094105;28;20060;-67
2023/01/18 00:53:10;;;;;;;0.50;0.50;;;;;;;3.54;94.04;96633.38;5094038;28;20036;-67
2023/01/18 00:55:39;;;;;;;0.43;0.43;;;;;;;3.55;93.97;96635.03;5093975;28;20038;-66
2023/01/18 00:58:08;;;;;;;0.50;0.50;;;;;;;3.54;94.33;96633.38;5093943;28;20044;-67
2023/01/18 01:00:37;;;;;;;0.50;0.50;;;;;;;3.57;94.34;96643.41;5093878;28;20070;-67
2023/01/18 01:03:08;;;;;;;0.50;0.50;;;;;;;3.61;95.01;96649.19;5094193;28;20154;-68
2023/01/18 01:08:17;;;;;;;0.50;0.50;;;;;;;3.64;94.80;96670.13;5093780;28;20126;-67
2023/01/18 01:10:46;;;;;;;;;;;;;;;3.68;94.76;96696.09;5094025;28;20056;-67
2023/01/18 01:26:33;;;;;;;0.70;0.70;;;;;;;3.75;94.56;96722.81;5094022;28;20076;-67
2023/01/18 01:29:01;;;;;;;0.40;0.40;;;;;;;3.82;94.64;96735.28;5093980;28;20036;-67
2023/01/18 01:31:30;;;;;;;0.50;0.50;;;;;;;3.82;95.09;96725.19;5093502;28;20093;-67
2023/01/18 01:34:00;;;;;;;0.32;0.32;;;;;;;3.85;95.08;96730.19;5093550;28;20075;-67
2023/01/18 01:36:29;;;;;;;1.95;1.30;;;;;;;3.86;94.41;96731.00;5093594;28;20581;-67
2023/01/18 01:38:58;;;;;;;0.30;0.30;;;;;;;3.90;94.65;96738.47;5094106;28;20131;-67
2023/01/18 01:41:29;;;;;;;0.37;0.37;;;;;;;3.90;94.42;96743.53;5094373;28;20040;-67
2023/01/18 01:44:01;;;;;;;0.50;0.50;;;;;;;3.89;95.02;96741.84;5097593;28;20303;-67
2023/01/18 01:46:41;;;;;;;0.30;0.30;;;;;;;3.91;94.71;96730.03;5097651;28;20394;-67
2023/01/18 01:49:18;;;;;;;1.00;1.00;;;;;;;3.90;94.48;96723.34;5097713;28;20044;-67
2023/01/18 01:51:51;;;;;;;0.22;0.22;;;;;;;3.91;94.44;96727.50;5097535;28;20109;-67
2023/01/18 01:54:25;;;;;;;0.47;0.43;;;;;;;3.92;94.41;96736.75;5097306;28;20052;-67
2023/01/18 01:57:04;;;;;;;0.82;0.80;;;;;;;3.91;94.46;96734.25;5097392;28;20051;-66
2023/01/18 01:59:36;;;;;;;0.68;0.68;;;;;;;3.90;94.47;96728.38;5097396;28;20047;-67
2023/01/18 02:02:05;;;;;;;1.27;1.17;;;;;;;3.92;94.19;96723.28;5097623;28;20481;-67
2023/01/18 02:04:36;;;;;;;0.40;0.40;;;;;;;3.92;94.98;96719.09;5096214;28;20482;-67
2023/01/18 02:07:05;;;;;;;0.60;0.60;;;;;;;3.93;94.18;96717.41;5097193;28;20136;-67
2023/01/18 02:09:34;;;;;;;0.43;0.43;;;;;;;3.88;94.97;96714.97;5096896;28;20495;-67
2023/01/18 02:12:03;;;;;;;1.02;1.02;;;;;;;3.95;94.31;96711.47;5097111;28;20043;-67
2023/01/18 02:14:32;;;;;;;0.43;0.43;;;;;;;3.95;94.40;96691.28;5096999;28;20093;-67
2023/01/18 02:17:14;;;;;;;0.50;0.50;;;;;;;3.95;94.28;96676.16;5096908;28;20118;-67
2023/01/18 02:20:10;;;;;;;0.50;0.50;;;;;;;3.92;94.31;96666.13;5097563;28;20044;-67
2023/01/18 02:22:59;;;;;;;0.45;0.45;;;;;;;3.90;94.46;96677.94;5095717;28;20127;-66
2023/01/18 02:26:00;;;;;;;0.38;0.38;;;;;;;3.90;94.38;96662.81;5097131;28;20485;-67
2023/01/18 02:28:34;;;;;;;0.30;0.30;;;;;;;3.89;94.68;96666.19;5095307;28;20097;-67
2023/01/18 02:31:10;;;;;;;0.38;0.38;;;;;;;3.91;94.38;96684.63;5096738;28;20075;-67
2023/01/18 02:33:44;;;;;;;0.40;0.40;;;;;;;3.94;95.03;96694.66;5096682;28;20101;-67
2023/01/18 02:36:26;;;;;;;1.35;1.05;;;;;;;3.96;94.78;96708.06;5096897;28;20043;-66
2023/01/18 02:39:00;;;;;;;0.20;0.20;;;;;;;3.97;94.63;96709.72;5096946;28;20048;-67
2023/01/18 02:47:04;;;;;;;0.43;0.43;;;;;;;3.94;94.37;96708.94;5096681;28;20044;-67
2023/01/18 02:49:33;;;;;;;0.70;0.70;;;;;;;3.94;94.97;96703.91;5096652;28;20044;-67
2023/01/18 02:52:02;;;;;;;0.82;0.80;;;;;;;3.90;94.79;96703.16;5096330;28;20040;-67
2023/01/18 02:54:34;;;;;;;0.52;0.52;;;;;;;3.95;94.86;96716.50;5095966;28;20036;-67
2023/01/18 02:57:06;;;;;;;0.85;0.85;;;;;;;3.96;94.56;96728.22;5096498;28;20452;-67
2023/01/18 02:59:41;;;;;;;0.40;0.40;;;;;;;4.00;95.15;96734.88;5096536;28;20128;-67
2023/01/18 03:02:15;;;;;;;0.40;0.40;;;;;;;4.01;94.53;96731.47;5096173;28;20045;-67
2023/01/18 03:04:53;;;;;;;0.50;0.50;;;;;;;4.02;95.17;96735.69;5096132;28;20082;-67
2023/01/18 03:07:26;;;;;;;0.63;0.63;;;;;;;4.03;94.94;96739.03;5096106;28;20076;-67
2023/01/18 03:09:58;;;;;;;0.57;0.57;;;;;;;4.03;94.64;96724.72;5095873;28;20056;-68
2023/01/18 03:12:44;;;;;;;0.40;0.40;;;;;;;4.04;95.22;96713.75;5095990;28;20048;-67
2023/01/18 03:15:22;;;;;;;0.93;0.93;;;;;;;4.04;94.99;96728.91;5096283;28;20070;-67
2023/01/18 03:17:53;;;;;;;0.93;0.93;;;;;;;4.05;94.58;96753.25;5095744;28;20126;-67
2023/01/18 03:20:26;;;;;;;0.40;0.40;;;;;;;4.05;95.09;96752.44;5095833;28;20052;-67
2023/01/18 03:25:43;;;;;;;0.70;0.70;;;;;;;4.04;94.34;96751.59;5095706;28;20052;-67
2023/01/18 03:33:45;;;;;;;0.60;0.60;;;;;;;4.06;94.85;96739.78;5095876;28;20048;-67
2023/01/18 03:36:20;;;;;;;0.47;0.47;;;;;;;4.06;94.54;96733.91;5095518;28;20040;-67
2023/01/18 03:38:56;;;;;;;0.50;0.50;;;;;;;4.06;94.39;96741.47;5095380;28;20048;-66
2023/01/18 03:41:29;;;;;;;0.73;0.73;;;;;;;4.04;94.94;96735.63;5095383;28;20075;-66
2023/01/18 03:44:03;;;;;;;0.60;0.60;;;;;;;4.03;94.41;96734.00;5095344;28;20044;-67
2023/01/18 03:46:34;;;;;;;0.80;0.80;;;;;;;3.99;95.06;96738.25;5095275;28;20052;-67
2023/01/18 03:49:04;;;;;;;0.75;0.75;;;;;;;3.99;95.01;96733.22;5095096;28;20050;-66
2023/01/18 03:51:47;;;;;;;0.50;0.50;;;;;;;4.02;94.75;96743.25;5095496;28;20048;-66
2023/01/18 03:54:21;;;;;;;1.15;1.10;;;;;;;4.03;94.49;96749.13;5095183;28;20048;-66
2023/01/18 03:56:56;;;;;;;0.50;0.50;;;;;;;4.03;94.67;96749.94;5095384;28;20062;-67
2023/01/18 03:59:30;;;;;;;2.25;1.17;;;;;;;4.04;95.19;96741.50;5094953;28;20048;-66
2023/01/18 04:02:00;;;;;;;0.40;0.40;;;;;;;4.04;95.14;96738.16;5095013;28;20044;-66
2023/01/18 04:04:30;;;;;;;0.20;0.20;;;;;;;4.06;95.22;96739.78;5094895;28;20058;-66
2023/01/18 04:06:59;;;;;;;0.60;0.60;;;;;;;4.06;95.36;96738.94;5095081;28;20493;-66
2023/01/18 04:09:28;;;;;;;0.82;0.82;;;;;;;4.10;94.68;96748.13;5094907;28;20448;-67
2023/01/18 04:11:56;;;;;;;0.77;0.77;;;;;;;4.12;94.95;96748.06;5095100;28;20109;-67
2023/01/18 04:14:26;;;;;;;;;;;;;;;4.12;95.17;96758.16;5095390;28;20066;-67
2023/01/18 04:16:55;;;;;;;0.60;0.60;;;;;;;4.14;94.88;96761.47;5094933;28;20272;-66
2023/01/18 04:19:27;;;;;;;0.73;0.73;;;;;;;4.15;94.74;96753.06;5094872;28;20044;-66
2023/01/18 04:21:56;;;;;;;0.80;0.80;;;;;;;4.16;94.90;96763.13;5094574;28;20052;-66
2023/01/18 04:24:25;;;;;;;0.20;0.20;;;;;;;4.17;95.18;96748.81;5094939;28;20480;-67
2023/01/18 04:26:54;;;;;;;0.63;0.63;;;;;;;4.14;95.03;96756.44;5095058;28;20052;-66
2023/01/18 04:29:23;;;;;;;0.73;0.73;;;;;;;4.12;95.13;96773.31;5094338;28;20404;-67
2023/01/18 04:31:52;;;;;;;0.25;0.25;;;;;;;4.13;95.08;96774.97;5094395;28;20063;-67
2023/01/18 04:34:21;;;;;;;3.90;2.67;;;;;;;4.08;94.71;96773.38;5094318;28;20060;-67
2023/01/18 04:36:52;;;;;;;0.85;0.80;;;;;;;4.05;95.10;96762.53;5094564;28;20432;-67
2023/01/18 04:39:21;;;;;;;1.52;1.42;;;;;;;4.04;95.39;96756.66;5094292;28;20152;-67
2023/01/18 04:41:50;;;;;;;0.73;0.73;;;;;;;4.05;94.93;96765.88;5094434;28;20436;-66
2023/01/18 04:44:18;;;;;;;1.20;1.13;;;;;;;4.07;95.31;96768.38;5094146;28;20047;-67
2023/01/18 04:46:50;;;;;;;1.13;1.02;;;;;;;4.08;95.51;96767.50;5094144;28;20287;-66
2023/01/18 04:49:19;;;;;;;0.75;0.75;;;;;;;4.10;95.01;96767.47;5094089;28;20044;-66
2023/01/18 04:51:48;;;;;;;1.05;1.05;;;;;;;4.11;95.20;96761.53;5094247;28;20039;-66
2023/01/18 04:54:18;;;;;;;3.97;1.92;;;;;;;4.13;95.58;96767.41;5094020;28;20058;-67
2023/01/18 04:56:47;;;;;;;0.50;0.50;;;;;;;4.10;95.23;96755.69;5094127;28;20048;-66
2023/01/18 04:59:17;;;;;;;0.70;0.70;;;;;;;4.10;95.49;96747.28;5094287;28;20032;-67
2023/01/18 05:01:45;;;;;;;0.73;0.73;;;;;;;4.10;94.92;96743.06;5093895;28;20036;-67
2023/01/18 05:04:14;;;;;;;0.97;0.97;;;;;;;4.12;95.58;96748.06;5093869;28;20044;-67
2023/01/18 05:06:43;;;;;;;0.50;0.50;;;;;;;4.10;95.29;96734.66;5093896;28;20770;-66
2023/01/18 05:09:12;;;;;;;1.03;1.03;;;;;;;4.07;94.94;96740.63;5093686;28;20048;-66
2023/01/18 05:11:42;;;;;;;1.02;1.02;;;;;;;4.06;95.48;96747.34;5093824;28;20047;-66
2023/01/18 05:14:11;;;;;;;1.15;1.15;;;;;;;4.06;95.20;96754.91;5093658;28;20047;-68
2023/01/18 05:16:40;;;;;;;0.50;0.50;;;;;;;4.05;95.02;96758.28;5093702;28;20548;-67
2023/01/18 05:19:09;;;;;;;0.80;0.80;;;;;;;4.07;95.15;96776.78;5093724;28;20039;-66
2023/01/18 05:21:41;;;;;;;0.65;0.65;;;;;;;4.10;95.79;96778.41;5094035;28;20089;-66
2023/01/18 05:24:10;;;;;;;1.40;1.30;;;;;;;4.10;95.73;96790.19;5093897;28;20036;-66
2023/01/18 05:26:39;;;;;;;0.80;0.80;;;;;;;4.05;95.54;96793.59;5093963;28;20103;-67
2023/01/18 05:29:09;;;;;;;0.73;0.73;;;;;;;4.04;95.53;96797.03;5093643;28;20070;-66
2023/01/18 05:31:37;;;;;;;0.50;0.50;;;;;;;4.03;95.89;96800.38;5093534;28;20079;-66
2023/01/18 05:34:07;;;;;;;0.52;0.52;;;;;;;4.05;95.53;96803.69;5093507;28;20494;-67
2023/01/18 05:36:36;;;;;;;0.50;0.50;;;;;;;4.08;95.61;96807.84;5093537;28;20048;-67
2023/01/18 05:39:04;;;;;;;0.53;0.53;;;;;;;4.09;95.73;96809.53;5093496;28;20285;-66
2023/01/18 05:41:34;;;;;;;1.00;1.00;;;;;;;4.09;95.82;96814.56;5093701;28;20101;-67
2023/01/18 05:44:02;;;;;;;0.60;0.60;;;;;;;4.13;95.60;96820.41;5093418;28;20094;-66
2023/01/18 05:46:33;;;;;;;0.60;0.60;;;;;;;4.10;95.49;96826.34;5093685;28;20047;-66
2023/01/18 05:49:02;;;;;;;1.73;1.52;;;;;;;4.09;95.81;96824.66;5093964;28;20048;-67
2023/01/18 05:51:31;;;;;;;1.30;1.20;;;;;;;4.10;96.08;96818.78;5093568;28;20044;-66
2023/01/18 05:53:59;;;;;;;1.47;1.37;;;;;;;4.13;95.83;96827.97;5093300;28;20485;-67
2023/01/18 05:56:28;;;;;;;1.40;1.30;;;;;;;4.14;96.13;96827.09;5093258;28;20324;-67
2023/01/18 05:58:57;;;;;;;2.70;2.27;;;;;;;4.11;95.67;96832.19;5093633;28;20385;-67
2023/01/18 06:01:26;;;;;;;0.57;0.57;;;;;;;4.11;95.74;96827.16;5093569;28;20854;-67
2023/01/18 06:03:56;;;;;;;0.40;0.40;;;;;;;4.07;95.54;96837.31;5093214;28;20052;-67
2023/01/18 06:06:25;;;;;;;0.35;0.35;;;;;;;4.08;95.53;96833.09;5093750;28;20082;-67
2023/01/18 06:08:54;;;;;;;0.53;0.53;;;;;;;4.08;95.66;96841.50;5092972;28;20036;-67
2023/01/18 06:11:23;;;;;;;3.67;2.50;;;;;;;4.06;95.62;96845.75;5093105;28;20041;-67
2023/01/18 06:13:52;;;;;;;1.58;1.48;;;;;;;4.07;96.03;96849.09;5093433;28;20408;-66
2023/01/18 06:16:21;;;;;;;1.40;1.30;;;;;;;4.07;95.95;96839.84;5093164;28;20043;-67
2023/01/18 06:18:50;;;;;;;1.50;1.10;;;;;;;4.03;95.78;96835.72;5093312;28;20066;-67
2023/01/18 06:21:20;;;;;;;0.60;0.60;;;;;;;4.05;95.92;96849.13;5093384;28;20067;-67
2023/01/18 06:23:49;;;;;;;0.60;0.60;;;;;;;4.05;96.03;96844.06;5093382;28;20486;-67
2023/01/18 06:26:17;;;;;;;1.77;1.67;;;;;;;4.10;95.68;96845.69;5093034;28;20067;-67
2023/01/18 06:28:46;;;;;;;1.50;1.40;;;;;;;4.09;96.09;96832.25;5094284;28;20066;-67
2023/01/18 06:31:15;;;;;;;0.60;0.60;;;;;;;4.11;96.09;96825.47;5096608;28;20071;-67
2023/01/18 06:33:44;;;;;;;1.45;1.17;;;;;;;4.13;96.29;96846.44;5096674;28;20044;-67
2023/01/18 06:36:12;;;;;;;1.00;0.95;;;;;;;4.15;96.00;96861.56;5096544;28;20040;-67
2023/01/18 06:38:43;;;;;;;0.93;0.93;;;;;;;4.13;95.92;96874.19;5097209;28;20132;-67
2023/01/18 06:41:12;;;;;;;2.22;2.13;;;;;;;4.08;95.85;96878.50;5096808;28;20071;-67
2023/01/18 06:43:40;;;;;;;1.73;1.50;;;;;;;4.03;95.73;96876.06;5096514;28;20066;-67
2023/01/18 06:46:10;;;;;;;;;;;;;;;3.99;95.98;96877.00;5097109;28;20111;-67
2023/01/18 06:48:39;;;;;;;0.83;0.83;;;;;;;3.98;95.95;96865.25;5096396;28;19927;-67
2023/01/18 06:51:07;;;;;;;1.05;1.05;;;;;;;3.99;96.14;96859.34;5096290;28;20043;-67
2023/01/18 06:53:36;;;;;;;0.70;0.70;;;;;;;3.98;95.69;96857.66;5096547;28;20048;-66
2023/01/18 06:56:10;;;;;;;0.93;0.88;;;;;;;3.99;96.29;96848.41;5096177;28;20036;-67
2023/01/18 06:58:39;;;;;;;0.75;0.75;;;;;;;4.00;96.13;96838.31;5096160;28;20051;-67
2023/01/18 07:01:08;;;;;;;0.53;0.50;;;;;;;4.00;96.03;96850.09;5096180;28;20140;-67
2023/01/18 07:03:37;;;;;;;0.90;0.90;;;;;;;4.00;96.20;96861.03;5096395;28;20114;-67
2023/01/18 07:06:06;;;;;;;1.13;1.10;;;;;;;4.01;96.02;96860.16;5095971;28;20040;-67
2023/01/18 07:08:35;;;;;;;2.08;0.82;;;;;;;4.02;96.02;96864.34;5095940;28;20068;-67
2023/01/18 07:11:05;;;;;;;1.10;1.08;;;;;;;4.05;96.10;96868.50;5095723;28;20139;-66
2023/01/18 07:13:38;;;;;;;1.52;1.42;;;;;;;4.05;96.22;96889.47;5096184;28;20122;-67
2023/01/18 07:16:16;;;;;;;1.63;1.52;;;;;;;4.00;95.88;96901.38;5096176;28;20126;-67
2023/01/18 07:18:46;;;;;;;0.93;0.88;;;;;;;4.00;96.27;96903.91;5095859;28;20044;-67
2023/01/18 07:21:18;;;;;;;1.27;0.80;;;;;;;3.97;95.54;96906.47;5096004;28;20066;-67
2023/01/18 07:23:46;;;;;;;0.75;0.75;;;;;;;3.98;95.83;96909.84;5096019;28;20044;-67
2023/01/18 07:26:17;;;;;;;0.27;0.27;;;;;;;3.97;95.79;96916.56;5095591;28;20486;-66
2023/01/18 07:28:48;;;;;;;0.38;0.38;;;;;;;3.98;95.49;96928.31;5095883;28;20131;-67
2023/01/18 07:31:18;;;;;;;1.40;1.30;;;;;;;3.99;95.62;96924.94;5095392;28;20040;-67
2023/01/18 07:33:48;;;;;;;0.73;0.73;;;;;;;3.98;96.20;96937.59;5095342;28;20040;-67
2023/01/18 07:36:16;;;;;;;0.47;0.47;;;;;;;3.91;95.85;96941.91;5096059;28;20040;-67
2023/01/18 07:38:46;;;;;;;0.60;0.60;;;;;;;3.87;95.76;96940.31;5095258;28;20131;-67
2023/01/18 07:41:17;;;;;;;0.77;0.77;;;;;;;3.87;95.71;96945.34;5094912;28;20052;-67
2023/01/18 07:43:47;;;;;;;1.08;1.00;;;;;;;3.87;96.09;96955.44;5095281;28;20052;-67
2023/01/18 07:46:19;;;;;;;1.25;1.15;;;;;;;3.88;95.57;96961.31;5095718;28;20385;-67
2023/01/18 07:48:49;;;;;;;0.75;0.75;;;;;;;3.89;96.00;96957.91;5095428;28;20378;-67
2023/01/18 07:51:18;;;;;;;4.82;2.22;;;;;;;3.90;95.83;96950.34;5094998;28;20047;-67
2023/01/18 07:53:53;;;;;;;2.65;2.45;;;;;;;3.93;95.73;96960.38;5095209;28;20071;-67
2023/01/18 07:56:24;;;;;;;5.75;3.40;;;;;;;3.94;95.93;96944.38;5095372;28;20390;-67
2023/01/18 07:58:54;;;;;;;1.00;0.95;;;;;;;3.98;95.68;96950.22;5094892;28;20502;-67
2023/01/18 08:01:24;;;;;;;1.70;1.55;;;;;;;4.02;96.05;96950.13;5095280;28;20051;-67
2023/01/18 08:03:53;;;;;;;1.48;1.38;;;;;;;4.07;96.32;96947.50;5095147;28;20044;-67
2023/01/18 08:06:25;;;;;;;;;;;;;;;4.07;96.34;96957.59;5095506;28;20525;-67
2023/01/18 08:08:56;;;;;;;0.82;0.77;;;;;;;4.04;96.32;96968.56;5094873;28;20258;-67
2023/01/18 08:11:25;;;;;;;2.00;1.90;;;;;;;4.04;96.46;96982.88;5094767;28;20040;-67
2023/01/18 08:13:55;;;;;;;1.27;1.17;;;;;;;3.96;96.40;96972.09;5094897;28;20036;-67
2023/01/18 08:16:25;;;;;;;1.00;1.00;;;;;;;4.03;96.58;96997.16;5098913;28;20043;-67
2023/01/18 08:18:55;;;;;;;0.40;0.40;;;;;;;4.06;96.13;97002.16;5106566;28;20392;-67
2023/01/18 08:21:23;;;;;;;0.80;0.80;;;;;;;4.08;96.28;97010.53;5114953;28;20052;-66
2023/01/18 08:23:53;;;;;;;0.98;0.98;;;;;;;4.10;96.57;97013.06;5107255;28;20353;-66
2023/01/18 08:26:22;;;;;;;0.70;0.70;;;;;;;4.11;96.55;97013.84;5094413;28;20083;-66
2023/01/18 08:28:51;;;;;;;1.75;1.65;;;;;;;4.13;96.51;97028.13;5093321;28;20074;-66
2023/01/18 08:31:22;;;;;;;0.93;0.93;;;;;;;4.11;96.59;97036.56;5094556;28;20397;-66
2023/01/18 08:33:51;;;;;;;1.40;1.30;;;;;;;4.11;96.25;97051.72;5094432;28;20048;-66
2023/01/18 08:36:21;;;;;;;1.05;1.05;;;;;;;4.03;96.19;97041.78;5094331;28;20552;-66
2023/01/18 08:38:52;;;;;;;1.50;1.40;;;;;;;4.08;96.72;97065.22;5101693;28;20089;-66
2023/01/18 08:41:26;;;;;;;1.23;1.15;;;;;;;4.06;96.21;97072.81;5114972;28;20126;-66
2023/01/18 08:43:56;;;;;;;2.10;1.90;;;;;;;4.05;96.23;97076.19;5114538;28;20079;-67
2023/01/18 08:46:27;;;;;;;0.90;0.90;;;;;;;4.09;96.48;97084.56;5114855;28;20054;-66
2023/01/18 08:48:57;;;;;;;0.52;0.52;;;;;;;4.10;96.29;97078.66;5113009;28;20039;-67
2023/01/18 08:51:26;;;;;;;1.23;1.13;;;;;;;4.12;96.23;97091.25;5106921;28;20063;-67
2023/01/18 08:53:55;;;;;;;1.20;1.10;;;;;;;4.16;96.71;97082.75;5094217;28;20051;-67
2023/01/18 08:56:26;;;;;;;0.63;0.63;;;;;;;4.22;96.30;97087.69;5094449;28;20044;-67
2023/01/18 08:58:56;;;;;;;0.60;0.60;;;;;;;4.25;96.46;97095.22;5093819;28;20044;-67
2023/01/18 09:01:27;;;;;;;2.22;1.15;;;;;;;4.30;96.41;97101.84;5095617;28;20036;-67
2023/01/18 09:03:57;;;;;;;1.27;1.20;;;;;;;4.32;96.66;97106.88;5096061;28;20072;-68
2023/01/18 09:06:31;;;;;;;0.70;0.65;;;;;;;4.34;96.45;97115.25;5101711;28;20523;-67
2023/01/18 09:09:00;;;;;;;0.60;0.60;;;;;;;4.40;96.98;97102.50;5093933;28;20405;-67
2023/01/18 09:11:31;;;;;;;1.02;1.00;;;;;;;4.43;96.56;97117.59;5094088;28;20040;-67
2023/01/18 09:14:00;;;;;;;1.30;1.20;;;;;;;4.44;96.49;97129.38;5094028;28;20432;-67
2023/01/18 09:16:31;;;;;;;1.55;1.45;;;;;;;4.45;96.60;97139.44;5094198;28;20116;-67
2023/01/18 09:19:05;;;;;;;0.50;0.50;;;;;;;4.48;96.28;97133.50;5093585;28;20097;-67
2023/01/18 09:21:34;;;;;;;0.50;0.50;;;;;;;4.51;96.46;97153.66;5093692;28;20043;-67
2023/01/18 09:24:03;;;;;;;1.38;1.27;;;;;;;4.55;96.66;97165.38;5093853;28;20048;-67
2023/01/18 09:26:32;;;;;;;0.47;0.47;;;;;;;4.52;96.31;97150.25;5093842;28;20432;-67
2023/01/18 09:29:01;;;;;;;1.42;1.33;;;;;;;4.57;96.47;97171.22;5093510;28;20085;-67
2023/01/18 09:31:31;;;;;;;0.50;0.50;;;;;;;4.55;96.47;97167.88;5104326;28;20505;-67
2023/01/18 09:34:00;;;;;;;1.30;1.20;;;;;;;4.54;96.03;97171.25;5114004;28;20081;-67
2023/01/18 09:36:46;;;;;;;0.60;0.60;;;;;;;4.51;96.57;97171.34;5107678;28;20509;-67
2023/01/18 09:39:15;;;;;;;0.60;0.60;;;;;;;4.51;96.21;97191.53;5112675;28;20122;-67
2023/01/18 09:41:49;;;;;;;0.40;0.40;;;;;;;4.51;96.01;97201.63;5114049;28;20481;-68
2023/01/18 09:44:24;;;;;;;0.70;0.70;;;;;;;4.54;96.47;97196.50;5113875;28;20047;-67
2023/01/18 09:46:58;;;;;;;1.05;0.90;;;;;;;4.57;96.32;97209.09;5104705;28;20089;-67
2023/01/18 09:49:36;;;;;;;0.40;0.40;;;;;;;4.59;95.73;97220.00;5096484;28;20048;-67
2023/01/18 09:52:20;;;;;;;0.98;0.95;;;;;;;4.61;95.90;97226.69;5093449;28;20071;-67
2023/01/18 09:54:56;;;;;;;1.33;1.23;;;;;;;4.60;95.92;97232.63;5093930;28;20048;-67
2023/01/18 09:57:39;;;;;;;0.40;0.40;;;;;;;4.60;96.19;97235.16;5093696;28;20044;-67
2023/01/18 10:00:19;;;;;;;0.43;0.43;;;;;;;4.62;95.51;97240.16;5093533;28;20448;-67
2023/01/18 10:02:54;;;;;;;2.40;1.50;;;;;;;4.61;95.97;97239.31;5094579;28;20075;-67
2023/01/18 10:05:27;;;;;;;0.35;0.35;;;;;;;4.64;96.19;97241.81;5097619;28;20044;-67
2023/01/18 10:08:10;;;;;;;0.50;0.50;;;;;;;4.66;95.74;97256.91;5097486;28;20047;-67
2023/01/18 10:10:45;;;;;;;1.33;1.23;;;;;;;4.69;95.81;97244.25;5097053;28;20105;-68
2023/01/18 10:13:36;;;;;;;0.40;0.40;;;;;;;4.75;95.67;97246.69;5096936;28;20134;-68
2023/01/18 10:16:13;;;;;;;1.10;1.05;;;;;;;4.78;95.95;97253.34;5097286;28;20048;-67
2023/01/18 10:18:46;;;;;;;1.65;1.55;;;;;;;4.81;95.95;97273.50;5117579;28;20032;-68
2023/01/18 10:21:22;;;;;;;1.27;1.17;;;;;;;4.82;95.86;97273.50;5117286;28;20040;-68
2023/01/18 10:24:12;;;;;;;1.55;1.45;;;;;;;4.81;95.78;97276.88;5097637;28;20040;-67
2023/01/18 10:26:42;;;;;;;;;;;;;;;4.79;95.81;97281.13;5097592;28;20036;-67
2023/01/18 10:29:17;;;;;;;0.82;0.80;;;;;;;4.80;95.80;97290.34;5097014;28;20352;-67
2023/01/18 10:31:56;;;;;;;1.27;1.17;;;;;;;4.81;95.74;97286.97;5096723;28;20044;-67
2023/01/18 10:34:30;;;;;;;3.72;1.30;;;;;;;4.80;95.88;97285.31;5097038;28;20976;-68
2023/01/18 10:37:11;;;;;;;0.88;0.88;;;;;;;4.85;95.67;97293.66;5103259;28;20046;-67
2023/01/18 10:39:43;;;;;;;0.88;0.88;;;;;;;4.84;95.52;97292.00;5099312;28;20122;-67
2023/01/18 10:42:19;;;;;;;0.47;0.47;;;;;;;4.86;95.63;97295.31;5113388;28;20061;-67
2023/01/18 10:44:47;;;;;;;0.40;0.40;;;;;;;4.86;95.55;97295.31;5114848;28;20118;-67
2023/01/18 10:47:18;;;;;;;0.30;0.30;;;;;;;4.89;95.62;97295.28;5108825;28;20064;-67
2023/01/18 10:49:50;;;;;;;0.40;0.40;;;;;;;4.92;95.87;97307.84;5096192;28;20052;-67
2023/01/18 10:52:26;;;;;;;0.30;0.30;;;;;;;4.94;95.80;97303.63;5096238;28;20044;-67
2023/01/18 10:54:58;;;;;;;0.55;0.55;;;;;;;4.99;95.69;97311.94;5096611;28;20094;-67
2023/01/18 10:57:30;;;;;;;0.73;0.73;;;;;;;5.03;95.57;97311.03;5096887;28;20073;-67
2023/01/18 11:00:00;;;;;;;0.35;0.35;;;;;;;5.05;95.53;97327.00;5096446;28;20131;-68
2023/01/18 11:02:34;;;;;;;0.80;0.80;;;;;;;5.09;95.70;97338.72;5097442;28;20086;-67
2023/01/18 11:05:22;;;;;;;1.02;1.02;;;;;;;5.07;95.46;97350.56;5115950;28;20039;-68
2023/01/18 11:08:12;;;;;;;0.50;0.50;;;;;;;5.06;95.59;97351.41;5113637;28;20093;-68
2023/01/18 11:10:43;;;;;;;0.82;0.82;;;;;;;5.09;95.47;97364.00;5112427;28;20051;-67
2023/01/18 11:13:25;;;;;;;1.38;1.27;;;;;;;5.10;95.57;97375.78;5095673;28;20105;-67
2023/01/18 11:16:05;;;;;;;0.68;0.68;;;;;;;5.09;95.36;97376.63;5107314;28;20496;-67
2023/01/18 11:18:34;;;;;;;0.73;0.73;;;;;;;5.09;95.45;97384.22;5116668;28;20051;-68
2023/01/18 11:21:11;;;;;;;0.40;0.40;;;;;;;5.03;94.91;97383.50;5116589;28;20135;-67
2023/01/18 11:23:41;;;;;;;0.50;0.50;;;;;;;5.08;95.48;97394.38;5115163;28;20044;-67
2023/01/18 11:26:16;;;;;;;4.40;1.30;;;;;;;5.08;95.42;97397.75;5108620;28;20040;-67
2023/01/18 11:28:49;;;;;;;0.68;0.68;;;;;;;5.11;95.26;97417.88;5095993;28;20052;-67
2023/01/18 11:31:20;;;;;;;1.10;0.75;;;;;;;5.08;95.04;97415.44;5097812;28;20047;-68
2023/01/18 11:33:52;;;;;;;0.45;0.45;;;;;;;5.14;95.18;97422.06;5096684;28;20036;-67
2023/01/18 11:36:35;;;;;;;1.65;1.17;;;;;;;5.16;95.23;97426.22;5097522;28;20127;-68
2023/01/18 11:39:17;;;;;;;0.65;0.65;;;;;;;5.20;94.99;97427.03;5114932;28;20484;-67
2023/01/18 11:41:47;;;;;;;0.88;0.88;;;;;;;5.19;94.84;97431.25;5106156;28;20105;-67
2023/01/18 11:44:19;;;;;;;;;;;;;;;5.18;94.88;97437.16;5101334;28;20097;-67
2023/01/18 11:46:51;;;;;;;0.47;0.40;;;;;;;5.17;95.01;97432.97;5095597;28;19926;-67
2023/01/18 11:49:34;;;;;;;0.77;0.77;;;;;;;5.17;94.66;97432.13;5095063;28;20043;-67
2023/01/18 11:52:13;;;;;;;0.60;0.60;;;;;;;5.19;94.69;97435.47;5095168;28;20043;-67
2023/01/18 11:54:46;;;;;;;;;;;;;;;5.22;94.56;97433.75;5095566;28;20040;-67
2023/01/18 11:57:14;;;;;;;4.03;1.83;;;;;;;5.22;94.78;97433.75;5095060;28;19927;-67
2023/01/18 11:59:45;;;;;;;0.60;0.60;;;;;;;5.24;94.38;97439.59;5095068;28;20067;-67
2023/01/18 12:02:33;;;;;;;0.93;0.93;;;;;;;5.26;94.60;97442.94;5102680;28;20044;-68
2023/01/18 12:05:24;;;;;;;1.13;1.02;;;;;;;5.27;94.47;97452.19;5113262;28;20161;-67
2023/01/18 12:08:12;;;;;;;1.38;1.27;;;;;;;5.29;94.25;97452.16;5115629;28;20036;-67
2023/01/18 12:10:51;;;;;;;2.17;2.00;;;;;;;5.31;94.29;97456.34;5115290;28;20073;-67
2023/01/18 12:13:34;;;;;;;1.00;1.00;;;;;;;5.29;94.03;97468.19;5115100;28;20043;-67
2023/01/18 12:16:12;;;;;;;0.60;0.60;;;;;;;5.31;94.14;97478.25;5105914;28;20517;-69
2023/01/18 12:19:04;;;;;;;0.70;0.70;;;;;;;5.31;94.04;97476.56;5101862;28;20109;-67
2023/01/18 12:21:43;;;;;;;1.63;1.52;;;;;;;5.35;93.86;97483.25;5094682;28;20473;-67
2023/01/18 12:24:28;;;;;;;0.50;0.50;;;;;;;5.39;93.94;97489.94;5094549;28;20123;-67
2023/01/18 12:27:00;;;;;;;0.52;0.52;;;;;;;5.40;93.94;97501.72;5103711;28;20046;-68
2023/01/18 12:30:00;;;;;;;1.20;1.10;;;;;;;5.39;93.50;97515.22;5103564;28;20040;-67
2023/01/18 12:32:47;;;;;;;0.40;0.40;;;;;;;5.39;93.61;97520.28;5094257;28;20037;-67
2023/01/18 12:35:34;;;;;;;1.45;1.35;;;;;;;5.39;93.65;97532.94;5094715;28;20082;-67
2023/01/18 12:38:17;;;;;;;3.53;1.50;;;;;;;5.39;93.39;97540.53;5093131;28;20044;-67
2023/01/18 12:41:06;;;;;;;0.70;0.70;;;;;;;5.39;93.27;97550.63;5094270;28;20127;-67